createdAt,value
2019-01-14T00:00:45.179Z,6.63
2019-01-14T00:03:14.454Z,6.03
2019-01-14T00:05:43.436Z,5.73
2019-01-14T00:08:12.390Z,6.90
2019-01-14T00:10:41.428Z,4.47
2019-01-14T00:13:10.387Z,5.30
2019-01-14T00:15:39.483Z,6.30
2019-01-14T00:18:08.547Z,5.83
2019-01-14T00:20:37.568Z,4.70
2019-01-14T00:23:06.682Z,5.70
2019-01-14T00:25:35.727Z,5.63
2019-01-14T00:28:04.674Z,6.83
2019-01-14T00:30:33.515Z,4.83
2019-01-14T00:33:02.519Z,5.80
2019-01-14T00:35:31.538Z,4.63
2019-01-14T00:38:00.398Z,6.40
2019-01-14T00:40:29.247Z,5.27
2019-01-14T00:42:58.262Z,5.90
2019-01-14T00:45:27.204Z,6.30
2019-01-14T00:47:56.062Z,4.60
2019-01-14T00:50:25.235Z,5.10
2019-01-14T00:52:54.225Z,4.83
2019-01-14T00:55:23.098Z,6.97
2019-01-14T00:57:52.023Z,4.97
2019-01-14T01:00:23.366Z,6.00
2019-01-14T01:02:52.398Z,5.03
2019-01-14T01:05:21.469Z,4.37
2019-01-14T01:07:50.817Z,5.77
2019-01-14T01:10:20.715Z,4.23
2019-01-14T01:12:49.685Z,5.77
2019-01-14T01:15:18.891Z,5.50
2019-01-14T01:17:47.899Z,5.90
2019-01-14T01:20:19.977Z,5.60
2019-01-14T01:22:49.404Z,4.67
2019-01-14T01:25:18.694Z,5.47
2019-01-14T01:27:47.793Z,5.97
2019-01-14T01:30:18.330Z,5.17
2019-01-14T01:32:47.677Z,5.43
2019-01-14T01:35:17.309Z,4.13
2019-01-14T01:37:46.471Z,4.50
2019-01-14T01:40:22.152Z,5.20
2019-01-14T01:42:51.147Z,4.20
2019-01-14T01:45:20.032Z,6.17
2019-01-14T01:47:49.025Z,6.17
2019-01-14T01:50:19.268Z,4.63
2019-01-14T01:52:48.451Z,4.80
2019-01-14T01:55:17.859Z,4.83
2019-01-14T01:57:46.920Z,4.37
2019-01-14T02:00:20.588Z,4.90
2019-01-14T02:02:50.159Z,4.73
2019-01-14T02:05:19.732Z,5.43
2019-01-14T02:07:48.782Z,4.20
2019-01-14T02:10:22.348Z,4.90
2019-01-14T02:12:51.471Z,5.40
2019-01-14T02:15:21.983Z,6.47
2019-01-14T02:17:52.332Z,6.50
2019-01-14T02:20:21.659Z,5.00
2019-01-14T02:22:50.826Z,4.93
2019-01-14T02:25:19.842Z,4.93
2019-01-14T02:27:48.753Z,5.80
2019-01-14T02:30:20.175Z,5.00
2019-01-14T02:32:49.503Z,5.43
2019-01-14T02:35:18.772Z,5.33
2019-01-14T02:37:47.731Z,4.23
2019-01-14T02:40:21.750Z,4.60
2019-01-14T02:42:50.775Z,3.83
2019-01-14T02:45:19.893Z,4.70
2019-01-14T02:47:48.948Z,4.80
2019-01-14T02:50:18.127Z,3.30
2019-01-14T02:52:47.015Z,3.90
2019-01-14T02:55:16.039Z,3.70
2019-01-14T02:57:44.994Z,2.73
2019-01-14T03:00:20.529Z,3.03
2019-01-14T03:02:49.487Z,2.87
2019-01-14T03:05:18.445Z,3.93
2019-01-14T03:07:47.629Z,2.93
2019-01-14T03:10:16.613Z,2.90
2019-01-14T03:12:45.583Z,3.13
2019-01-14T03:15:15.530Z,3.83
2019-01-14T03:17:44.581Z,2.53
2019-01-14T03:20:14.314Z,4.10
2019-01-14T03:22:43.611Z,3.20
2019-01-14T03:25:13.075Z,3.23
2019-01-14T03:27:42.038Z,2.57
2019-01-14T03:30:13.911Z,2.57
2019-01-14T03:32:43.116Z,2.23
2019-01-14T03:35:12.090Z,3.30
2019-01-14T03:37:41.137Z,2.63
2019-01-14T03:40:12.496Z,2.23
2019-01-14T03:42:41.402Z,2.33
2019-01-14T03:45:11.221Z,3.03
2019-01-14T03:47:40.191Z,2.63
2019-01-14T03:50:19.331Z,2.80
2019-01-14T03:52:48.235Z,3.73
2019-01-14T03:55:17.311Z,2.27
2019-01-14T03:57:46.379Z,3.40
2019-01-14T04:00:16.939Z,3.30
2019-01-14T04:02:46.339Z,4.30
2019-01-14T04:05:15.497Z,2.70
2019-01-14T04:07:44.405Z,3.00
2019-01-14T04:10:15.186Z,4.07
2019-01-14T04:12:44.163Z,3.57
2019-01-14T04:15:15.270Z,3.10
2019-01-14T04:17:44.978Z,3.90
2019-01-14T04:20:15.338Z,2.83
2019-01-14T04:22:44.353Z,4.30
2019-01-14T04:25:13.392Z,3.20
2019-01-14T04:27:42.385Z,3.10
2019-01-14T04:30:17.144Z,3.80
2019-01-14T04:32:45.951Z,3.40
2019-01-14T04:35:15.094Z,3.13
2019-01-14T04:37:44.091Z,2.90
2019-01-14T04:40:14.039Z,5.80
2019-01-14T04:42:43.159Z,3.77
2019-01-14T04:45:12.751Z,2.50
2019-01-14T04:47:41.650Z,3.90
2019-01-14T04:50:13.150Z,3.03
2019-01-14T04:52:42.081Z,2.80
2019-01-14T04:55:11.056Z,4.03
2019-01-14T04:57:59.131Z,3.73
2019-01-14T05:00:28.269Z,3.03
2019-01-14T05:02:57.232Z,3.13
2019-01-14T05:05:26.210Z,4.93
2019-01-14T05:07:55.143Z,4.37
2019-01-14T05:10:24.307Z,2.67
2019-01-14T05:12:53.203Z,4.83
2019-01-14T05:15:22.023Z,3.03
2019-01-14T05:17:50.871Z,2.97
2019-01-14T05:20:21.985Z,3.83
2019-01-14T05:22:51.010Z,3.70
2019-01-14T05:25:19.940Z,3.27
2019-01-14T05:27:48.843Z,3.93
2019-01-14T05:30:18.142Z,3.13
2019-01-14T05:32:47.108Z,3.37
2019-01-14T05:35:16.418Z,3.30
2019-01-14T05:37:45.307Z,3.33
2019-01-14T05:40:16.882Z,3.73
2019-01-14T05:42:45.865Z,2.70
2019-01-14T05:45:14.976Z,3.60
2019-01-14T05:47:43.923Z,4.27
2019-01-14T05:50:13.784Z,3.90
2019-01-14T05:52:42.778Z,3.47
2019-01-14T05:55:12.989Z,3.70
2019-01-14T05:57:42.163Z,3.37
2019-01-14T06:00:17.931Z,4.63
2019-01-14T06:02:46.850Z,3.20
2019-01-14T06:05:15.843Z,3.10
2019-01-14T06:07:45.206Z,4.80
2019-01-14T06:10:14.226Z,3.90
2019-01-14T06:12:43.206Z,3.40
2019-01-14T06:15:12.357Z,3.43
2019-01-14T06:17:41.303Z,4.50
2019-01-14T06:20:12.778Z,3.80
2019-01-14T06:22:41.738Z,3.57
2019-01-14T06:25:12.101Z,3.70
2019-01-14T06:27:41.062Z,3.50
2019-01-14T06:30:14.342Z,2.30
2019-01-14T06:32:43.512Z,3.03
2019-01-14T06:35:12.680Z,3.23
2019-01-14T06:37:41.837Z,3.30
2019-01-14T06:40:11.661Z,3.27
2019-01-14T06:42:40.974Z,3.37
2019-01-14T06:45:10.013Z,2.90
2019-01-14T06:47:39.066Z,3.23
2019-01-14T06:50:09.884Z,4.20
2019-01-14T06:52:38.856Z,2.80
2019-01-14T06:55:08.036Z,2.20
2019-01-14T06:57:37.183Z,3.87
2019-01-14T07:00:08.913Z,2.73
2019-01-14T07:02:37.862Z,2.77
2019-01-14T07:05:07.991Z,2.60
2019-01-14T07:07:37.072Z,2.70
2019-01-14T07:10:08.267Z,3.53
2019-01-14T07:12:37.243Z,2.97
2019-01-14T07:15:07.081Z,3.40
2019-01-14T07:17:35.988Z,3.73
2019-01-14T07:20:05.952Z,3.17
2019-01-14T07:22:34.864Z,2.40
2019-01-14T07:25:04.686Z,3.07
2019-01-14T07:27:33.624Z,3.27
2019-01-14T07:30:02.558Z,3.53
2019-01-14T07:32:31.763Z,2.93
2019-01-14T07:35:02.230Z,2.50
2019-01-14T07:37:31.471Z,4.37
2019-01-14T07:40:00.571Z,3.10
2019-01-14T07:42:29.742Z,2.00
2019-01-14T07:44:58.578Z,4.13
2019-01-14T07:47:27.421Z,3.53
2019-01-14T07:49:56.243Z,3.43
2019-01-14T07:52:25.199Z,3.60
2019-01-14T07:54:54.152Z,2.57
2019-01-14T07:57:23.231Z,2.77
2019-01-14T07:59:52.203Z,3.20
2019-01-14T08:02:21.199Z,2.80
2019-01-14T08:04:50.111Z,3.20
2019-01-14T08:07:19.184Z,2.30
2019-01-14T08:09:48.218Z,2.90
2019-01-14T08:12:17.136Z,3.00
2019-01-14T08:14:46.112Z,3.40
2019-01-14T08:17:15.027Z,4.13
2019-01-14T08:19:43.859Z,3.80
2019-01-14T08:22:12.955Z,4.27
2019-01-14T08:24:42.131Z,3.80
2019-01-14T08:27:11.072Z,3.20
2019-01-14T08:29:40.257Z,2.90
2019-01-14T08:32:09.257Z,3.33
2019-01-14T08:34:38.283Z,3.27
2019-01-14T08:37:08.494Z,3.40
2019-01-14T08:39:37.698Z,3.43
2019-01-14T08:42:07.238Z,3.87
2019-01-14T08:44:39.193Z,2.97
2019-01-14T08:47:08.090Z,2.10
2019-01-14T08:49:36.994Z,3.63
2019-01-14T08:52:06.039Z,3.23
2019-01-14T08:54:35.059Z,3.30
2019-01-14T08:57:04.034Z,2.63
2019-01-14T08:59:32.962Z,4.00
2019-01-14T09:02:01.878Z,3.60
2019-01-14T09:04:32.510Z,3.40
2019-01-14T09:07:01.424Z,2.60
2019-01-14T09:09:30.416Z,3.40
2019-01-14T09:11:59.341Z,3.90
2019-01-14T09:14:28.258Z,2.00
2019-01-14T09:16:57.237Z,2.50
2019-01-14T09:19:26.224Z,3.57
2019-01-14T09:21:55.123Z,4.43
2019-01-14T09:24:24.102Z,2.80
2019-01-14T09:26:53.096Z,3.00
2019-01-14T09:29:22.030Z,2.80
2019-01-14T09:31:51.763Z,3.33
2019-01-14T09:34:20.936Z,2.30
2019-01-14T09:36:49.883Z,3.50
2019-01-14T09:39:18.750Z,3.13
2019-01-14T09:41:47.645Z,2.27
2019-01-14T09:44:16.497Z,3.07
2019-01-14T09:46:45.422Z,3.33
2019-01-14T09:49:14.496Z,2.67
2019-01-14T09:51:43.511Z,3.53
2019-01-14T09:54:12.464Z,3.07
2019-01-14T09:56:41.411Z,2.70
2019-01-14T09:59:10.343Z,2.97
2019-01-14T10:01:39.419Z,2.70
2019-01-14T10:04:08.346Z,3.67
2019-01-14T10:06:37.343Z,2.30
2019-01-14T10:09:08.191Z,3.77
2019-01-14T10:11:37.108Z,3.93
2019-01-14T10:14:06.472Z,2.03
2019-01-14T10:16:35.518Z,2.37
2019-01-14T10:19:05.213Z,3.07
2019-01-14T10:21:34.240Z,3.10
2019-01-14T10:24:03.250Z,3.60
2019-01-14T10:26:32.439Z,3.67
2019-01-14T10:29:01.488Z,2.77
2019-01-14T10:31:30.345Z,2.80
2019-01-14T10:33:59.261Z,2.23
2019-01-14T10:36:28.163Z,2.30
2019-01-14T10:38:56.992Z,2.23
2019-01-14T10:41:25.836Z,1.77
2019-01-14T10:43:54.942Z,2.70
2019-01-14T10:46:23.862Z,2.47
2019-01-14T10:48:52.719Z,2.37
2019-01-14T10:51:21.625Z,2.90
2019-01-14T10:53:50.478Z,2.13
2019-01-14T10:56:19.335Z,2.70
2019-01-14T10:58:48.263Z,3.03
2019-01-14T11:01:17.252Z,1.90
2019-01-14T11:03:46.359Z,3.53
2019-01-14T11:06:15.267Z,3.30
2019-01-14T11:08:44.177Z,2.57
2019-01-14T11:11:13.199Z,2.50
2019-01-14T11:13:42.362Z,2.40
2019-01-14T11:16:11.394Z,2.80
2019-01-14T11:18:49.652Z,2.80
2019-01-14T11:21:18.664Z,2.90
2019-01-14T11:23:47.723Z,2.20
2019-01-14T11:26:20.952Z,2.80
2019-01-14T11:28:49.907Z,3.43
2019-01-14T11:31:18.909Z,3.20
2019-01-14T11:33:48.283Z,2.10
2019-01-14T11:36:17.499Z,3.10
2019-01-14T11:38:49.347Z,2.60
2019-01-14T11:41:18.654Z,2.80
2019-01-14T11:43:48.134Z,2.87
2019-01-14T11:46:17.354Z,2.57
2019-01-14T11:48:46.538Z,2.60
2019-01-14T11:51:15.970Z,2.20
2019-01-14T11:53:44.883Z,3.30
2019-01-14T11:56:13.838Z,2.70
2019-01-14T11:58:42.718Z,2.10
2019-01-14T12:01:11.610Z,3.37
2019-01-14T12:03:40.534Z,2.70
2019-01-14T12:06:09.491Z,1.83
2019-01-14T12:08:38.495Z,1.90
2019-01-14T12:11:07.492Z,2.23
2019-01-14T12:13:36.513Z,2.97
2019-01-14T12:16:05.480Z,2.87
2019-01-14T12:18:34.422Z,2.67
2019-01-14T12:21:03.439Z,3.70
2019-01-14T12:23:32.357Z,3.53
2019-01-14T12:26:01.179Z,2.93
2019-01-14T12:28:30.109Z,3.17
2019-01-14T12:30:58.934Z,2.53
2019-01-14T12:33:27.843Z,3.17
2019-01-14T12:35:56.715Z,2.73
2019-01-14T12:38:25.538Z,2.33
2019-01-14T12:40:54.571Z,2.17
2019-01-14T12:43:23.559Z,2.97
2019-01-14T12:45:52.491Z,2.93
2019-01-14T12:48:22.601Z,2.70
2019-01-14T12:50:51.903Z,3.03
2019-01-14T12:53:20.767Z,2.60
2019-01-14T12:55:49.855Z,2.53
2019-01-14T12:58:18.754Z,2.73
2019-01-14T13:00:47.697Z,2.90
2019-01-14T13:03:16.599Z,2.73
2019-01-14T13:05:45.603Z,2.70
2019-01-14T13:08:14.698Z,2.40
2019-01-14T13:10:43.508Z,2.57
2019-01-14T13:13:12.399Z,2.90
2019-01-14T13:15:41.502Z,3.23
2019-01-14T13:18:10.490Z,2.73
2019-01-14T13:20:39.426Z,3.10
2019-01-14T13:23:08.321Z,3.33
2019-01-14T13:25:37.274Z,2.77
2019-01-14T13:28:06.655Z,3.27
2019-01-14T13:30:35.702Z,4.10
2019-01-14T13:33:04.988Z,2.60
2019-01-14T13:35:34.031Z,3.43
2019-01-14T13:38:03.009Z,4.63
2019-01-14T13:40:32.192Z,2.47
2019-01-14T13:43:01.221Z,3.47
2019-01-14T13:45:30.212Z,2.97
2019-01-14T13:47:59.274Z,3.23
2019-01-14T13:50:28.374Z,3.00
2019-01-14T13:52:57.336Z,2.13
2019-01-14T13:55:26.380Z,5.57
2019-01-14T13:57:59.762Z,3.23
2019-01-14T14:00:27.287Z,2.43
2019-01-14T14:02:56.474Z,3.53
2019-01-14T14:05:25.403Z,2.80
2019-01-14T14:07:54.314Z,2.60
2019-01-14T14:10:29.283Z,3.60
2019-01-14T14:12:58.479Z,2.60
2019-01-14T14:15:28.003Z,2.40
2019-01-14T14:17:56.956Z,4.00
2019-01-14T14:20:25.971Z,2.73
2019-01-14T14:22:54.896Z,2.90
2019-01-14T14:25:23.851Z,3.93
2019-01-14T14:27:52.850Z,3.47
2019-01-14T14:30:36.277Z,2.83
2019-01-14T14:33:05.734Z,3.47
2019-01-14T14:35:34.903Z,3.10
2019-01-14T14:38:05.794Z,3.10
2019-01-14T14:40:34.911Z,3.97
2019-01-14T14:43:03.970Z,2.93
2019-01-14T14:45:32.891Z,2.90
2019-01-14T14:48:01.745Z,3.80
2019-01-14T14:50:30.687Z,3.47
2019-01-14T14:52:59.655Z,2.83
2019-01-14T14:55:28.725Z,3.07
2019-01-14T14:57:57.763Z,3.83
2019-01-14T15:00:28.369Z,2.17
2019-01-14T15:02:57.467Z,3.17
2019-01-14T15:05:26.755Z,3.73
2019-01-14T15:07:55.767Z,3.60
2019-01-14T15:10:24.728Z,2.70
2019-01-14T15:12:53.695Z,3.00
2019-01-14T15:15:24.343Z,2.63
2019-01-14T15:17:53.301Z,3.13
2019-01-14T15:20:24.216Z,3.80
2019-01-14T15:22:53.383Z,2.40
2019-01-14T15:25:22.517Z,2.43
2019-01-14T15:27:51.388Z,2.20
2019-01-14T15:30:38.399Z,2.10
2019-01-14T15:33:07.345Z,2.27
2019-01-14T15:35:36.400Z,2.93
2019-01-14T15:38:05.538Z,2.60
2019-01-14T15:40:34.745Z,2.60
2019-01-14T15:43:03.814Z,3.90
2019-01-14T15:45:32.882Z,3.77
2019-01-14T15:48:01.872Z,2.23
2019-01-14T15:50:30.760Z,2.90
2019-01-14T15:52:59.710Z,3.20
2019-01-14T15:55:28.904Z,3.70
2019-01-14T15:57:57.977Z,2.67
2019-01-14T16:00:27.560Z,2.90
2019-01-14T16:02:56.482Z,2.60
2019-01-14T16:05:25.863Z,3.33
2019-01-14T16:07:54.813Z,3.07
2019-01-14T16:10:25.461Z,2.53
2019-01-14T16:12:54.606Z,2.50
2019-01-14T16:15:23.895Z,2.80
2019-01-14T16:17:54.002Z,2.40
2019-01-14T16:20:24.954Z,2.63
2019-01-14T16:22:54.027Z,3.67
2019-01-14T16:25:23.196Z,3.73
2019-01-14T16:27:52.037Z,2.80
2019-01-14T16:30:23.211Z,3.20
2019-01-14T16:32:52.131Z,2.73
2019-01-14T16:35:21.118Z,2.47
2019-01-14T16:37:50.198Z,2.47
2019-01-14T16:40:19.210Z,3.00
2019-01-14T16:42:48.162Z,2.50
2019-01-14T16:45:19.929Z,3.23
2019-01-14T16:47:48.821Z,3.17
2019-01-14T16:50:18.001Z,1.93
2019-01-14T16:52:47.103Z,2.30
2019-01-14T16:55:18.646Z,3.20
2019-01-14T16:57:47.899Z,2.27
2019-01-14T17:00:18.091Z,2.20
2019-01-14T17:02:47.319Z,2.30
2019-01-14T17:05:16.721Z,3.10
2019-01-14T17:07:45.764Z,2.70
2019-01-14T17:10:15.347Z,3.20
2019-01-14T17:12:44.516Z,3.23
2019-01-14T17:15:14.026Z,4.00
2019-01-14T17:17:43.152Z,3.47
2019-01-14T17:20:15.454Z,3.60
2019-01-14T17:22:44.379Z,3.83
2019-01-14T17:25:14.120Z,2.47
2019-01-14T17:27:43.342Z,3.03
2019-01-14T17:30:13.587Z,2.70
2019-01-14T17:32:42.526Z,2.87
2019-01-14T17:35:11.777Z,3.30
2019-01-14T17:37:40.617Z,2.50
2019-01-14T17:40:12.085Z,3.30
2019-01-14T17:42:41.047Z,3.20
2019-01-14T17:45:10.179Z,3.47
2019-01-14T17:47:39.153Z,2.67
2019-01-14T17:50:14.083Z,4.60
2019-01-14T17:52:43.092Z,2.70
2019-01-14T17:55:12.067Z,3.57
2019-01-14T17:57:41.195Z,2.80
2019-01-14T18:00:14.357Z,3.17
2019-01-14T18:02:43.219Z,3.13
2019-01-14T18:05:12.277Z,2.90
2019-01-14T18:07:41.248Z,3.03
2019-01-14T18:10:11.795Z,2.93
2019-01-14T18:12:40.633Z,2.70
2019-01-14T18:15:09.639Z,2.90
2019-01-14T18:17:38.487Z,3.70
2019-01-14T18:20:09.459Z,2.70
2019-01-14T18:22:38.261Z,2.63
2019-01-14T18:25:07.527Z,3.70
2019-01-14T18:27:36.527Z,3.27
2019-01-14T18:30:12.117Z,3.63
2019-01-14T18:32:41.018Z,3.33
2019-01-14T18:35:10.067Z,3.03
2019-01-14T18:37:39.090Z,2.97
2019-01-14T18:40:09.674Z,4.30
2019-01-14T18:42:38.598Z,2.30
2019-01-14T18:45:10.163Z,3.03
2019-01-14T18:47:39.406Z,2.90
2019-01-14T18:50:10.749Z,3.50
2019-01-14T18:52:39.899Z,2.30
2019-01-14T18:55:08.919Z,2.97
2019-01-14T18:57:38.072Z,2.67
2019-01-14T19:00:10.217Z,4.03
2019-01-14T19:02:39.158Z,3.23
2019-01-14T19:05:08.178Z,3.30
2019-01-14T19:07:37.112Z,2.40
2019-01-14T19:10:06.724Z,3.63
2019-01-14T19:12:35.641Z,2.30
2019-01-14T19:15:07.732Z,2.30
2019-01-14T19:17:36.788Z,2.80
2019-01-14T19:20:07.983Z,3.10
2019-01-14T19:22:36.912Z,3.13
2019-01-14T19:25:06.806Z,2.90
2019-01-14T19:27:35.785Z,2.90
2019-01-14T19:30:06.832Z,4.53
2019-01-14T19:32:38.615Z,3.40
2019-01-14T19:35:07.291Z,2.87
2019-01-14T19:37:36.239Z,4.00
2019-01-14T19:40:08.167Z,3.70
2019-01-14T19:42:37.150Z,3.33
2019-01-14T19:45:06.937Z,3.53
2019-01-14T19:47:35.958Z,3.63
2019-01-14T19:50:06.484Z,3.17
2019-01-14T19:52:35.400Z,3.20
2019-01-14T19:55:05.064Z,4.43
2019-01-14T19:57:34.106Z,3.50
2019-01-14T20:00:04.602Z,3.07
2019-01-14T20:02:33.532Z,3.60
2019-01-14T20:05:03.232Z,4.80
2019-01-14T20:07:32.454Z,4.20
2019-01-14T20:10:01.388Z,3.20
2019-01-14T20:12:30.208Z,3.43
2019-01-14T20:14:59.059Z,3.00
2019-01-14T20:17:27.890Z,3.17
2019-01-14T20:19:56.751Z,2.50
2019-01-14T20:22:25.848Z,3.17
2019-01-14T20:24:54.702Z,3.17
2019-01-14T20:27:23.601Z,4.00
2019-01-14T20:29:52.468Z,3.13
2019-01-14T20:32:21.987Z,3.40
2019-01-14T20:34:50.910Z,3.73
2019-01-14T20:37:19.882Z,3.17
2019-01-14T20:39:48.785Z,2.70
2019-01-14T20:42:17.698Z,3.60
2019-01-14T20:44:46.532Z,3.27
2019-01-14T20:47:15.466Z,3.10
2019-01-14T20:49:44.310Z,2.80
2019-01-14T20:52:13.260Z,4.10
2019-01-14T20:54:42.410Z,3.47
2019-01-14T20:57:11.488Z,2.60
2019-01-14T20:59:40.342Z,3.47
2019-01-14T21:02:09.351Z,3.20
2019-01-14T21:04:38.415Z,3.10
2019-01-14T21:07:07.583Z,2.40
2019-01-14T21:09:36.496Z,3.20
2019-01-14T21:12:05.528Z,4.37
2019-01-14T21:14:34.462Z,3.70
2019-01-14T21:17:03.550Z,4.30
2019-01-14T21:19:32.731Z,3.90
2019-01-14T21:22:01.698Z,3.83
2019-01-14T21:24:30.635Z,4.60
2019-01-14T21:26:59.590Z,3.70
2019-01-14T21:29:28.528Z,3.87
2019-01-14T21:31:57.587Z,3.33
2019-01-14T21:34:27.262Z,4.27
2019-01-14T21:36:56.426Z,3.97
2019-01-14T21:39:25.705Z,3.47
2019-01-14T21:41:54.631Z,4.33
2019-01-14T21:44:23.709Z,3.37
2019-01-14T21:46:52.704Z,3.73
2019-01-14T21:49:21.771Z,4.47
2019-01-14T21:51:51.011Z,3.90
2019-01-14T21:54:20.127Z,4.57
2019-01-14T21:56:48.964Z,3.47
2019-01-14T21:59:17.807Z,3.80
2019-01-14T22:01:46.739Z,4.17
2019-01-14T22:04:15.794Z,3.93
2019-01-14T22:06:44.859Z,2.70
2019-01-14T22:09:14.126Z,2.43
2019-01-14T22:11:43.646Z,3.33
2019-01-14T22:14:12.548Z,4.13
2019-01-14T22:16:41.416Z,2.73
2019-01-14T22:19:10.514Z,3.23
2019-01-14T22:21:39.775Z,3.00
2019-01-14T22:24:08.640Z,2.73
2019-01-14T22:26:37.501Z,2.93
2019-01-14T22:29:06.338Z,3.83
2019-01-14T22:31:35.331Z,3.03
2019-01-14T22:34:04.389Z,2.67
2019-01-14T22:36:33.410Z,2.93
2019-01-14T22:39:02.478Z,2.90
2019-01-14T22:41:31.422Z,2.53
2019-01-14T22:44:00.367Z,2.43
2019-01-14T22:46:29.234Z,2.60
2019-01-14T22:48:58.166Z,2.00
2019-01-14T22:51:27.084Z,3.00
2019-01-14T22:53:57.521Z,2.53
2019-01-14T22:56:26.704Z,1.87
2019-01-14T22:58:55.615Z,2.00
2019-01-14T23:01:32.370Z,2.00
2019-01-14T23:04:01.308Z,1.83
2019-01-14T23:06:30.302Z,2.37
2019-01-14T23:08:59.228Z,2.17
2019-01-14T23:11:31.162Z,2.60
2019-01-14T23:14:00.240Z,2.60
2019-01-14T23:16:29.276Z,2.60
2019-01-14T23:18:58.186Z,2.40
2019-01-14T23:21:27.153Z,2.10
2019-01-14T23:23:55.992Z,2.43
2019-01-14T23:26:24.995Z,2.40
2019-01-14T23:28:53.912Z,2.37
2019-01-14T23:31:22.891Z,1.83
2019-01-14T23:33:51.996Z,1.93
2019-01-14T23:36:21.011Z,1.97
2019-01-14T23:38:49.907Z,1.73
2019-01-14T23:41:18.768Z,2.50
2019-01-14T23:43:47.794Z,2.07
2019-01-14T23:46:16.724Z,2.10
2019-01-14T23:48:45.679Z,1.60
2019-01-14T23:51:14.650Z,2.60
2019-01-14T23:53:43.649Z,2.30
2019-01-14T23:56:12.566Z,1.90
2019-01-14T23:58:41.429Z,1.67
